Seaspan Raven — CFN6643 — position and weather

sailwx.info

Track history (hours):
 
Tides and Currents Weather Stations Pressure Air Temp Water Temp Dewpoint Dewpoint Depression Visibility Wind Speed Wind Dir Waves Ship Positions

Seaspan Raven

Last reported at 2017-Oct-17 17:00 UTC. Time now 2017-Oct-17 17:08 UTC.
Position N 49°19' W 123°06'.

Length 26 m; draft 4.5 m.

Type: Tug. MMSI: 316018851.

Date/timePositionNaut miles runAvg speedWind from/ knotsBaromVisibWave heightAir tempDewpointWater temp
2017-Oct-17 17:00N 49°19' W 123°06'0 0.5
2017-Oct-17 16:30N 49°19' W 123°06'0 0.5
2017-Oct-17 16:01N 49°19' W 123°06'0 0.1
2017-Oct-17 15:31N 49°19' W 123°06'0 0.1
2017-Oct-17 15:01N 49°19' W 123°06'1 2.9
2017-Oct-17 14:30N 49°17' W 123°06'611.0
2017-Oct-17 14:00N 49°18' W 122°58'2 5.0
2017-Oct-17 13:31N 49°17' W 122°54'0 0.7
2017-Oct-17 13:00N 49°17' W 122°54'2 3.6
2017-Oct-17 12:30N 49°18' W 122°57'3 5.3
2017-Oct-17 12:00N 49°18' W 123°01'2 4.6
2017-Oct-17 11:30N 49°18' W 123°05'1 1.2
2017-Oct-17 11:00N 49°19' W 123°05'0 0.0
2017-Oct-17 10:30N 49°19' W 123°05'0 0.0
2017-Oct-17 10:00N 49°19' W 123°05'0 0.0
2017-Oct-17 09:30N 49°19' W 123°05'0 0.0
2017-Oct-17 09:01N 49°19' W 123°05'0 0.0
2017-Oct-17 08:30N 49°19' W 123°05'0 0.0
2017-Oct-17 08:00N 49°19' W 123°05'0 0.0
2017-Oct-17 07:31N 49°19' W 123°05'0 0.0
2017-Oct-17 07:00N 49°19' W 123°05'0 0.0
2017-Oct-17 06:31N 49°19' W 123°05'0 0.0
2017-Oct-17 06:00N 49°19' W 123°05'0 0.0
2017-Oct-17 05:30N 49°19' W 123°05'0 0.0
2017-Oct-17 05:00N 49°19' W 123°05'0 0.0
2017-Oct-17 04:30N 49°19' W 123°05'0 0.0
2017-Oct-17 04:00N 49°19' W 123°05'0 0.0
2017-Oct-17 03:30N 49°19' W 123°05'0 0.0
2017-Oct-17 03:01N 49°19' W 123°05'0 0.0
2017-Oct-17 02:31N 49°19' W 123°05'0 0.0
2017-Oct-17 02:01N 49°19' W 123°05'0 0.0
2017-Oct-17 01:30N 49°19' W 123°05'0 0.0
2017-Oct-17 01:00N 49°19' W 123°05'0 0.0
2017-Oct-17 00:30N 49°19' W 123°05'0 0.0
2017-Oct-17 00:00N 49°19' W 123°05'0 0.0
2017-Oct-16 23:30N 49°19' W 123°05'0 0.0
2017-Oct-16 23:00N 49°19' W 123°05'0 0.0
2017-Oct-16 22:30N 49°19' W 123°05'0 0.0
2017-Oct-16 22:00N 49°19' W 123°05'1 2.1
2017-Oct-16 21:30N 49°17' W 123°05'1 2.9
2017-Oct-16 21:00N 49°19' W 123°06'0 0.0
2017-Oct-16 20:31N 49°19' W 123°06'0 0.0
2017-Oct-16 20:00N 49°19' W 123°06'0 0.0
2017-Oct-16 19:30N 49°19' W 123°06'0 0.0
2017-Oct-16 19:00N 49°19' W 123°06'0 0.0
2017-Oct-16 18:30N 49°19' W 123°06'0 0.0
2017-Oct-16 18:00N 49°19' W 123°06'1 2.3
2017-Oct-16 17:30N 49°18' W 123°07'0 0.0
2017-Oct-16 17:00N 49°18' W 123°07'0 0.0
2017-Oct-16 16:30N 49°18' W 123°07'0 0.0
2017-Oct-16 16:00N 49°18' W 123°07'0 0.0
2017-Oct-16 15:30N 49°18' W 123°07'0 0.0
2017-Oct-16 15:00N 49°18' W 123°07'0 0.0
2017-Oct-16 14:00N 49°18' W 123°07'0 0.1
2017-Oct-16 13:30N 49°18' W 123°07'2 3.5
2017-Oct-16 13:01N 49°17' W 123°04'0 0.2
2017-Oct-16 12:30N 49°17' W 123°04'2 3.2
2017-Oct-16 12:01N 49°18' W 123°02'1 2.3
2017-Oct-16 11:30N 49°18' W 123°04'0 0.8
2017-Oct-16 11:00N 49°17' W 123°04'0 0.0
2017-Oct-16 10:30N 49°17' W 123°04'4 7.3
2017-Oct-16 10:00N 49°19' W 123°09'611.1
2017-Oct-16 09:30N 49°20' W 123°18'510.7
2017-Oct-16 09:00N 49°20' W 123°26'611.1
2017-Oct-16 08:31N 49°22' W 123°33'611.2
2017-Oct-16 08:01N 49°25' W 123°41'4 8.2
2017-Oct-16 07:30N 49°28' W 123°45'0 0.0
2017-Oct-16 07:00N 49°28' W 123°45'0 0.6
2017-Oct-16 06:30N 49°28' W 123°45'0 0.0
2017-Oct-16 06:00N 49°28' W 123°45'0 0.0
2017-Oct-16 05:30N 49°28' W 123°45'0 0.1
2017-Oct-16 05:01N 49°28' W 123°45'0 0.0
2017-Oct-16 04:30N 49°28' W 123°45'2 4.0
2017-Oct-16 04:00N 49°26' W 123°44'4 8.4
2017-Oct-16 03:31N 49°23' W 123°40'5 9.6
2017-Oct-16 03:00N 49°21' W 123°33'510.5
2017-Oct-16 02:30N 49°20' W 123°25'510.9
2017-Oct-16 02:00N 49°19' W 123°17'611.6
2017-Oct-16 01:31N 49°19' W 123°08'1 2.6
2017-Oct-16 01:00N 49°19' W 123°06'0 0.0
2017-Oct-16 00:30N 49°19' W 123°06'1 2.3
2017-Oct-16 00:00N 49°18' W 123°05'1 1.8
2017-Oct-15 23:30N 49°18' W 123°03'1 1.1
2017-Oct-15 23:00N 49°18' W 123°04'1 2.2
2017-Oct-15 22:31N 49°19' W 123°06'0 0.0
2017-Oct-15 22:00N 49°19' W 123°06'0 0.0
2017-Oct-15 21:30N 49°19' W 123°06'0 0.1
2017-Oct-15 21:00N 49°19' W 123°06'0 0.0
2017-Oct-15 20:31N 49°19' W 123°06'0 0.1
2017-Oct-15 20:00N 49°19' W 123°06'0 0.0
2017-Oct-15 19:30N 49°19' W 123°06'0 0.1
2017-Oct-15 19:00N 49°19' W 123°06'0 0.0
2017-Oct-15 18:30N 49°19' W 123°06'0 0.0
2017-Oct-15 18:00N 49°19' W 123°06'0 0.1
2017-Oct-15 17:30N 49°19' W 123°06'0 0.0
2017-Oct-15 17:01N 49°19' W 123°06'0 0.1
2017-Oct-15 16:30N 49°19' W 123°06'0 0.1
2017-Oct-15 16:01N 49°19' W 123°06'2 3.9
2017-Oct-15 15:30N 49°18' W 123°03'0 0.5
2017-Oct-15 15:00N 49°18' W 123°03'1 0.6
2017-Oct-15 14:00N 49°18' W 123°04'5 9.4
2017-Oct-15 13:30N 49°19' W 123°11'611.1
2017-Oct-15 13:00N 49°19' W 123°19'611.3
2017-Oct-15 12:30N 49°20' W 123°28'611.4
2017-Oct-15 12:00N 49°23' W 123°36'611.5
2017-Oct-15 11:30N 49°26' W 123°43'3 5.4
2017-Oct-15 11:00N 49°28' W 123°45'0 0.1
2017-Oct-15 10:30N 49°28' W 123°45'1 1.9
2017-Oct-15 10:00N 49°27' W 123°46'1 1.6
2017-Oct-15 09:30N 49°28' W 123°45'0 0.3
2017-Oct-15 09:00N 49°28' W 123°45'5 9.3
2017-Oct-15 08:30N 49°25' W 123°40'510.2
2017-Oct-15 08:00N 49°22' W 123°33'510.2
2017-Oct-15 07:31N 49°20' W 123°26'510.1
2017-Oct-15 07:00N 49°19' W 123°19'510.1
2017-Oct-15 06:30N 49°19' W 123°11'3 6.4
2017-Oct-15 06:00N 49°19' W 123°06'0 0.0
2017-Oct-15 05:30N 49°19' W 123°06'0 0.0
2017-Oct-15 05:01N 49°19' W 123°06'0 0.0
2017-Oct-15 04:30N 49°19' W 123°06'3 5.4
2017-Oct-15 04:00N 49°18' W 123°02'0 0.5
2017-Oct-15 03:31N 49°18' W 123°02'2 4.1
2017-Oct-15 03:00N 49°19' W 123°05'0 0.0
2017-Oct-15 02:30N 49°19' W 123°05'1 2.1
2017-Oct-15 02:00N 49°19' W 123°06'0 0.1
2017-Oct-15 01:31N 49°19' W 123°06'0 0.1
2017-Oct-15 01:01N 49°19' W 123°06'0 0.0
2017-Oct-15 00:30N 49°19' W 123°06'0 0.0
2017-Oct-15 00:01N 49°19' W 123°06'0 0.0
2017-Oct-14 23:30N 49°19' W 123°06'1 2.2
2017-Oct-14 23:01N 49°18' W 123°05'0 0.1
2017-Oct-14 22:31N 49°18' W 123°05'0 0.3
2017-Oct-14 22:01N 49°18' W 123°05'0 0.4
2017-Oct-14 21:30N 49°18' W 123°05'1 1.8
2017-Oct-14 21:01N 49°18' W 123°03'0 0.0
2017-Oct-14 20:30N 49°18' W 123°03'1 1.4
2017-Oct-14 20:00N 49°18' W 123°04'1 2.4
2017-Oct-14 19:30N 49°18' W 123°06'0 1.0
2017-Oct-14 19:00N 49°19' W 123°06'0 0.0
2017-Oct-14 18:30N 49°19' W 123°06'0 0.0
2017-Oct-14 18:00N 49°19' W 123°06'0 0.0
2017-Oct-14 17:30N 49°19' W 123°06'0 0.0
2017-Oct-14 17:00N 49°19' W 123°06'3 5.5
2017-Oct-14 16:30N 49°18' W 123°02'0 0.0
2017-Oct-14 16:01N 49°18' W 123°02'2 3.8
2017-Oct-14 15:30N 49°18' W 123°05'0 0.2
2017-Oct-14 15:00N 49°18' W 123°05'0 0.3
2017-Oct-14 14:30N 49°18' W 123°05'0 0.2
2017-Oct-14 14:00N 49°18' W 123°05'0 0.0
2017-Oct-14 13:30N 49°18' W 123°05'0 0.2
2017-Oct-14 13:00N 49°19' W 123°05'0 0.0
2017-Oct-14 12:30N 49°19' W 123°05'0 0.0
2017-Oct-14 12:01N 49°19' W 123°05'0 0.0
2017-Oct-14 11:30N 49°19' W 123°05'0 0.0
2017-Oct-14 11:00N 49°19' W 123°05'0 0.0
2017-Oct-14 10:31N 49°19' W 123°05'0 0.0
2017-Oct-14 10:00N 49°19' W 123°05'2 4.3
2017-Oct-14 09:30N 49°18' W 123°02'0 0.1
2017-Oct-14 09:01N 49°18' W 123°02'1 1.5
2017-Oct-14 08:30N 49°18' W 123°03'1 1.8
2017-Oct-14 08:00N 49°17' W 123°04'0 0.1
2017-Oct-14 07:31N 49°17' W 123°04'1 2.2
2017-Oct-14 07:01N 49°18' W 123°03'0 0.0
2017-Oct-14 06:31N 49°18' W 123°03'0 0.0
2017-Oct-14 06:00N 49°18' W 123°03'0 0.0
2017-Oct-14 05:30N 49°18' W 123°03'0 0.0
2017-Oct-14 05:00N 49°18' W 123°03'0 0.0
2017-Oct-14 04:30N 49°18' W 123°03'0 0.3
2017-Oct-14 04:00N 49°18' W 123°02'0 0.1
2017-Oct-14 03:30N 49°18' W 123°02'1 2.7
2017-Oct-14 03:00N 49°18' W 123°05'1 2.0
2017-Oct-14 02:30N 49°17' W 123°06'0 0.4
2017-Oct-14 02:00N 49°17' W 123°06'0 0.0
2017-Oct-14 01:30N 49°17' W 123°06'0 0.0
2017-Oct-14 01:00N 49°17' W 123°06'0 0.0
2017-Oct-14 00:30N 49°17' W 123°06'0 0.0
2017-Oct-14 00:00N 49°17' W 123°06'0 0.0
2017-Oct-13 23:30N 49°17' W 123°06'2 3.9
2017-Oct-13 23:00N 49°18' W 123°03'0 0.2
2017-Oct-13 22:30N 49°18' W 123°04'1 1.6
2017-Oct-13 22:00N 49°18' W 123°05'0 0.7
2017-Oct-13 21:30N 49°17' W 123°05'0 0.0
2017-Oct-13 21:00N 49°17' W 123°05'0 0.1
2017-Oct-13 20:31N 49°17' W 123°05'1 2.2
2017-Oct-13 20:00N 49°18' W 123°06'1 1.6
2017-Oct-13 19:31N 49°19' W 123°06'0 0.1
2017-Oct-13 19:00N 49°19' W 123°06'0 1.0
2017-Oct-13 18:30N 49°18' W 123°06'2 4.4
2017-Oct-13 18:00N 49°19' W 123°09'0 1.0
2017-Oct-13 17:30N 49°19' W 123°08'1 3.0
2017-Oct-13 17:00N 49°19' W 123°06'0 0.1
2017-Oct-13 16:30N 49°19' W 123°06'0 0.1
2017-Oct-13 16:00N 49°19' W 123°06'0 0.0
2017-Oct-13 15:30N 49°19' W 123°06'0 0.1
2017-Oct-13 15:00N 49°19' W 123°06'0 0.0
2017-Oct-13 14:30N 49°19' W 123°06'0 0.0
2017-Oct-13 14:01N 49°19' W 123°06'1 2.4
2017-Oct-13 13:31N 49°17' W 123°06'0 0.0
2017-Oct-13 13:00N 49°17' W 123°06'1 1.7
2017-Oct-13 12:30N 49°18' W 123°06'0 0.9
2017-Oct-13 12:00N 49°19' W 123°06'0 0.0
2017-Oct-13 11:30N 49°19' W 123°06'0 0.0
2017-Oct-13 11:00N 49°19' W 123°06'0 0.0
2017-Oct-13 10:31N 49°19' W 123°06'0 0.0
2017-Oct-13 10:01N 49°19' W 123°06'0 0.0
2017-Oct-13 09:30N 49°19' W 123°06'0 0.2
2017-Oct-13 09:00N 49°19' W 123°06'3 6.2
2017-Oct-13 08:30N 49°18' W 123°02'0 0.0
2017-Oct-13 08:00N 49°18' W 123°02'1 1.0
2017-Oct-13 07:30N 49°18' W 123°03'2 3.1
2017-Oct-13 07:00N 49°19' W 123°05'0 0.0
2017-Oct-13 06:30N 49°19' W 123°05'0 0.0
2017-Oct-13 06:00N 49°19' W 123°05'0 0.0
2017-Oct-13 05:30N 49°19' W 123°05'0 0.0
2017-Oct-13 05:00N 49°19' W 123°05'0 0.0
2017-Oct-13 04:30N 49°19' W 123°05'0 0.0
2017-Oct-13 04:00N 49°19' W 123°05'0 0.0
2017-Oct-13 03:31N 49°19' W 123°05'0 0.0
2017-Oct-13 03:00N 49°19' W 123°05'0 0.0
2017-Oct-13 02:31N 49°19' W 123°05'0 0.0
2017-Oct-13 02:00N 49°19' W 123°05'0 0.0
2017-Oct-13 01:30N 49°19' W 123°05'0 0.0
2017-Oct-13 01:00N 49°19' W 123°05'0 0.0
2017-Oct-13 00:30N 49°19' W 123°05'2 3.6
2017-Oct-13 00:00N 49°18' W 123°02'1 1.1
2017-Oct-12 23:30N 49°18' W 123°03'1 2.5
2017-Oct-12 23:00N 49°19' W 123°05'0 0.0
2017-Oct-12 22:30N 49°19' W 123°05'0 0.0
2017-Oct-12 22:00N 49°19' W 123°05'0 0.0
2017-Oct-12 21:31N 49°19' W 123°05'3 5.1
2017-Oct-12 21:00N 49°18' W 123°01'1 1.1
2017-Oct-12 20:30N 49°18' W 123°00'0 0.3
2017-Oct-12 20:00N 49°18' W 123°00'2 3.8
2017-Oct-12 19:30N 49°18' W 122°57'0 0.5
2017-Oct-12 19:00N 49°18' W 122°57'0 0.2
2017-Oct-12 18:31N 49°18' W 122°57'510.1
2017-Oct-12 18:00N 49°18' W 123°05'1 2.5
2017-Oct-12 17:30N 49°19' W 123°06'0 0.0
2017-Oct-12 17:00N 49°19' W 123°06'0 0.0
2017-Oct-12 16:30N 49°19' W 123°06'0 0.0
2017-Oct-12 16:00N 49°19' W 123°06'0 0.0
2017-Oct-12 15:30N 49°19' W 123°06'0 0.0
2017-Oct-12 15:00N 49°19' W 123°06'0 0.0
2017-Oct-12 14:30N 49°19' W 123°06'0 0.0
2017-Oct-12 14:00N 49°19' W 123°06'0 0.0
2017-Oct-12 13:30N 49°19' W 123°06'0 0.0
2017-Oct-12 13:00N 49°19' W 123°06'0 0.0
2017-Oct-12 12:30N 49°19' W 123°06'0 0.0
2017-Oct-12 12:00N 49°19' W 123°06'0 0.0
2017-Oct-12 11:30N 49°19' W 123°06'0 0.2
2017-Oct-12 11:00N 49°19' W 123°06'0 0.2
2017-Oct-12 10:30N 49°19' W 123°06'1 1.1
2017-Oct-12 10:00N 49°18' W 123°07'0 0.9
2017-Oct-12 09:30N 49°19' W 123°06'0 0.0
2017-Oct-12 09:00N 49°19' W 123°06'0 0.0
2017-Oct-12 08:30N 49°19' W 123°06'0 0.0
2017-Oct-12 08:00N 49°19' W 123°06'0 0.0
2017-Oct-12 07:30N 49°19' W 123°06'0 0.0
2017-Oct-12 07:00N 49°19' W 123°06'0 0.0
2017-Oct-12 06:30N 49°19' W 123°06'0 0.0
2017-Oct-12 06:00N 49°19' W 123°06'0 0.7
2017-Oct-12 05:30N 49°18' W 123°06'3 6.9
2017-Oct-12 05:01N 49°18' W 123°01'0 0.1
2017-Oct-12 04:30N 49°18' W 123°01'1 1.3
2017-Oct-12 04:00N 49°18' W 123°02'1 1.2
2017-Oct-12 03:30N 49°18' W 123°03'0 0.0
2017-Oct-12 03:00N 49°18' W 123°03'0 0.0
2017-Oct-12 02:30N 49°18' W 123°03'0 0.0
2017-Oct-12 02:00N 49°18' W 123°03'1 2.0
2017-Oct-12 01:30N 49°18' W 123°04'0 0.2
2017-Oct-12 01:01N 49°18' W 123°04'1 1.0
2017-Oct-12 00:30N 49°18' W 123°05'0 0.6
2017-Oct-12 00:00N 49°18' W 123°05'1 1.1
2017-Oct-11 23:30N 49°18' W 123°05'0 0.0
2017-Oct-11 23:00N 49°18' W 123°05'1 2.4
2017-Oct-11 22:30N 49°18' W 123°03'0 0.1
2017-Oct-11 22:00N 49°18' W 123°03'1 1.6
2017-Oct-11 21:30N 49°18' W 123°04'1 1.2
2017-Oct-11 21:00N 49°18' W 123°05'1 2.1
2017-Oct-11 20:30N 49°19' W 123°06'0 0.2
2017-Oct-11 20:00N 49°19' W 123°06'0 0.0
2017-Oct-11 19:30N 49°19' W 123°06'0 0.0
2017-Oct-11 19:00N 49°19' W 123°06'0 0.0
2017-Oct-11 18:30N 49°19' W 123°06'0 0.0
2017-Oct-11 18:00N 49°19' W 123°06'0 0.0
2017-Oct-11 17:30N 49°19' W 123°06'0 0.0
2017-Oct-11 17:00N 49°19' W 123°06'1 0.1
2017-Oct-11 00:00N 49°18' W 123°05'0 0.0
2017-Oct-10 23:30N 49°18' W 123°05'0 0.0
2017-Oct-10 23:00N 49°18' W 123°05'0 0.3
2017-Oct-10 22:31N 49°18' W 123°05'1 2.0
2017-Oct-10 22:00N 49°17' W 123°05'0 0.5
2017-Oct-10 21:30N 49°18' W 123°05'1 1.9
2017-Oct-10 21:00N 49°18' W 123°06'1 1.3
2017-Oct-10 20:30N 49°19' W 123°06'0 0.0
2017-Oct-10 20:00N 49°19' W 123°06'0 0.0
2017-Oct-10 19:30N 49°19' W 123°06'0 0.0
2017-Oct-10 19:00N 49°19' W 123°06'0 0.0
2017-Oct-10 18:30N 49°19' W 123°06'0 0.0
2017-Oct-10 18:00N 49°19' W 123°06'0 0.0
2017-Oct-10 17:30N 49°19' W 123°06'2 4.1
2017-Oct-10 17:00N 49°18' W 123°03'0 0.4
2017-Oct-10 16:30N 49°18' W 123°03'2 4.3
2017-Oct-10 16:00N 49°18' W 123°06'0 0.8
2017-Oct-10 15:31N 49°18' W 123°07'0 0.0
2017-Oct-10 15:00N 49°18' W 123°07'0 0.0
2017-Oct-10 14:00N 49°18' W 123°07'0 0.0
2017-Oct-10 13:30N 49°18' W 123°07'2 3.5
2017-Oct-10 13:00N 49°18' W 123°05'1 1.9
2017-Oct-10 12:30N 49°18' W 123°03'2 3.3
2017-Oct-10 12:00N 49°18' W 123°01'0 0.0
2017-Oct-10 11:30N 49°18' W 123°01'0 0.0
2017-Oct-10 11:00N 49°18' W 123°01'2 4.4
2017-Oct-10 10:30N 49°18' W 123°04'1 2.5
2017-Oct-10 10:00N 49°17' W 123°06'0 0.2
2017-Oct-10 09:31N 49°17' W 123°06'1 2.6
2017-Oct-10 09:00N 49°18' W 123°05'0 0.0
2017-Oct-10 08:30N 49°18' W 123°05'0 0.0
2017-Oct-10 08:00N 49°18' W 123°05'0 0.0
2017-Oct-10 07:30N 49°18' W 123°05'0 0.0
2017-Oct-10 07:00N 49°18' W 123°05'0 0.0
2017-Oct-10 06:30N 49°18' W 123°05'0 0.0
2017-Oct-10 06:00N 49°18' W 123°05'0 0.0
2017-Oct-10 05:30N 49°18' W 123°05'0 0.0
2017-Oct-10 05:00N 49°18' W 123°05'0 0.0
2017-Oct-10 04:30N 49°18' W 123°05'0 0.0
2017-Oct-10 04:00N 49°18' W 123°05'0 0.0
2017-Oct-10 03:30N 49°18' W 123°05'0 0.0
2017-Oct-10 03:00N 49°18' W 123°05'0 0.0
2017-Oct-10 02:30N 49°18' W 123°05'0 0.0
2017-Oct-10 02:00N 49°18' W 123°05'0 0.0
2017-Oct-10 01:30N 49°18' W 123°05'0 0.0
2017-Oct-10 01:00N 49°18' W 123°05'1 2.6
2017-Oct-10 00:30N 49°17' W 123°06'0 0.0
2017-Oct-10 00:01N 49°17' W 123°06'0 0.9
2017-Oct-09 23:31N 49°18' W 123°06'2 3.3
2017-Oct-09 23:00N 49°18' W 123°03'1 1.7
2017-Oct-09 22:31N 49°18' W 123°02'0 0.2
2017-Oct-09 22:00N 49°18' W 123°02'0 0.1
2017-Oct-09 21:31N 49°18' W 123°02'2 3.5
2017-Oct-09 21:00N 49°18' W 123°05'0 0.0
2017-Oct-09 20:30N 49°18' W 123°05'0 0.0
2017-Oct-09 20:00N 49°18' W 123°05'0 0.0
2017-Oct-09 19:30N 49°18' W 123°05'1 1.1
2017-Oct-09 19:00N 49°18' W 123°06'1 1.3
2017-Oct-09 18:30N 49°19' W 123°06'0 0.0
2017-Oct-09 18:00N 49°19' W 123°06'2 4.5
2017-Oct-09 17:30N 49°18' W 123°03'2 3.1
2017-Oct-09 17:00N 49°18' W 123°01'0 0.4
2017-Oct-09 16:31N 49°18' W 123°01'1 2.4
2017-Oct-09 16:00N 49°18' W 122°59'0 0.7
2017-Oct-09 15:30N 49°18' W 122°58'0 0.3
2017-Oct-09 15:00N 49°18' W 122°58'0 0.7
2017-Oct-09 14:30N 49°18' W 122°58'0 0.0
2017-Oct-09 14:00N 49°18' W 122°58'3 5.9
2017-Oct-09 13:31N 49°18' W 123°03'1 2.5
2017-Oct-09 13:00N 49°17' W 123°05'2 3.3
2017-Oct-09 12:30N 49°19' W 123°06'0 0.0
2017-Oct-09 12:00N 49°19' W 123°06'0 0.0
2017-Oct-09 11:30N 49°19' W 123°06'0 0.0
2017-Oct-09 11:00N 49°19' W 123°06'0 0.3
2017-Oct-09 10:30N 49°18' W 123°06'510.5
2017-Oct-09 10:00N 49°18' W 123°14'510.8
2017-Oct-09 09:31N 49°14' W 123°19'611.8
2017-Oct-09 09:00N 49°08' W 123°20'510.6
2017-Oct-09 08:30N 49°03' W 123°18'510.4
2017-Oct-09 08:01N 49°01' W 123°11'1 2.4
2017-Oct-09 07:29N 49°01' W 123°09'0 0.1
2017-Oct-09 06:59N 49°01' W 123°09'0 0.4
2017-Oct-09 06:26N 49°01' W 123°09'0 0.4
2017-Oct-09 05:59N 49°01' W 123°09'1 2.9
2017-Oct-09 05:29N 48°60' W 123°09'0 0.8
2017-Oct-09 05:00N 49°00' W 123°10'1 1.2
2017-Oct-09 04:31N 49°01' W 123°09'1 1.1
2017-Oct-09 04:00N 49°01' W 123°09'0 0.8
2017-Oct-09 03:30N 49°02' W 123°09'0 0.0
2017-Oct-09 03:00N 49°02' W 123°09'0 0.0
2017-Oct-09 02:30N 49°02' W 123°09'0 0.0
2017-Oct-09 02:00N 49°02' W 123°09'0 0.0
2017-Oct-09 01:30N 49°02' W 123°09'0 0.0
2017-Oct-09 01:00N 49°02' W 123°09'0 0.2
2017-Oct-09 00:17N 49°01' W 123°09'0 1.0
2017-Oct-08 23:48N 49°01' W 123°09'2 6.0
2017-Oct-08 23:30N 48°59' W 123°09'2 4.6
2017-Oct-08 23:00N 49°02' W 123°09'0 0.0
2017-Oct-08 22:30N 49°02' W 123°09'0 0.0
2017-Oct-08 22:00N 49°02' W 123°09'0 0.0
2017-Oct-08 21:30N 49°02' W 123°09'0 0.0
2017-Oct-08 20:59N 49°02' W 123°09'0 0.0
2017-Oct-08 20:31N 49°02' W 123°09'0 0.0
2017-Oct-08 20:00N 49°02' W 123°09'0 0.0
2017-Oct-08 19:31N 49°02' W 123°09'1 1.4
2017-Oct-08 19:00N 49°01' W 123°09'0 0.2
2017-Oct-08 18:30N 49°01' W 123°09'0 0.0
2017-Oct-08 18:00N 49°01' W 123°09'0 0.9
2017-Oct-08 17:31N 49°00' W 123°10'0 0.8
2017-Oct-08 17:01N 49°01' W 123°09'0 0.0
2017-Oct-08 16:30N 49°01' W 123°09'1 1.6
2017-Oct-08 16:01N 49°02' W 123°09'0 0.0
2017-Oct-08 15:31N 49°02' W 123°09'0 0.0
2017-Oct-08 15:00N 49°02' W 123°09'0 0.0
2017-Oct-08 14:31N 49°02' W 123°09'0 0.0
2017-Oct-08 14:00N 49°02' W 123°09'3 6.3
2017-Oct-08 13:30N 49°01' W 123°14'5 9.8
2017-Oct-08 13:00N 49°05' W 123°19'611.4
2017-Oct-08 12:30N 49°10' W 123°19'510.8
2017-Oct-08 12:00N 49°16' W 123°18'510.6
2017-Oct-08 11:31N 49°19' W 123°11'3 6.5
2017-Oct-08 11:01N 49°19' W 123°06'0 0.0
2017-Oct-08 10:30N 49°19' W 123°06'0 0.0
2017-Oct-08 10:01N 49°19' W 123°06'0 0.1
2017-Oct-08 09:31N 49°19' W 123°06'2 4.6
2017-Oct-08 09:01N 49°19' W 123°09'2 3.8
2017-Oct-08 08:31N 49°18' W 123°07'2 4.4
2017-Oct-08 08:01N 49°18' W 123°03'0 0.2
2017-Oct-08 07:30N 49°18' W 123°03'1 2.0
2017-Oct-08 07:01N 49°18' W 123°05'0 0.1
2017-Oct-08 06:31N 49°18' W 123°05'0 0.0
2017-Oct-08 06:01N 49°18' W 123°05'0 0.0
2017-Oct-08 05:31N 49°18' W 123°05'0 0.0
2017-Oct-08 05:01N 49°18' W 123°05'0 0.0
2017-Oct-08 04:31N 49°18' W 123°05'4 7.5
2017-Oct-08 04:01N 49°19' W 123°10'1 2.5
2017-Oct-08 03:30N 49°18' W 123°12'2 3.7
2017-Oct-08 03:00N 49°18' W 123°15'4 8.2
2017-Oct-08 02:30N 49°15' W 123°19'611.8
2017-Oct-08 02:00N 49°09' W 123°20'611.6
2017-Oct-08 01:30N 49°04' W 123°19'713.2
2017-Oct-08 01:00N 48°59' W 123°12'713.1
2017-Oct-08 00:30N 48°55' W 123°05'612.5
2017-Oct-08 00:00N 48°49' W 122°60'612.4
2017-Oct-07 23:30N 48°44' W 123°06'612.5
2017-Oct-07 23:01N 48°42' W 123°15'612.2
2017-Oct-07 22:31N 48°36' W 123°13'612.2
2017-Oct-07 22:01N 48°30' W 123°11'612.0
2017-Oct-07 21:31N 48°24' W 123°12'612.6
2017-Oct-07 21:00N 48°22' W 123°21'3 6.7
2017-Oct-07 20:31N 48°25' W 123°23'0 0.0
2017-Oct-07 20:00N 48°25' W 123°23'0 0.0
2017-Oct-07 19:30N 48°25' W 123°23'0 0.0
2017-Oct-07 19:01N 48°25' W 123°23'0 0.0
2017-Oct-07 18:30N 48°25' W 123°23'0 0.0
2017-Oct-07 18:00N 48°25' W 123°23'3 6.5
2017-Oct-07 17:30N 48°23' W 123°19'510.0
2017-Oct-07 17:00N 48°28' W 123°15'  
Track history (hours):
 
Tides and Currents Weather Stations Pressure Air Temp Water Temp Dewpoint Dewpoint Depression Visibility Wind Speed Wind Dir Waves Ship Positions

Seaspan Raven

Last reported at 2017-Oct-17 17:00 UTC. Time now 2017-Oct-17 17:08 UTC.
Position N 49°19' W 123°06'.

Length 26 m; draft 4.5 m.

Type: Tug. MMSI: 316018851.

Date/timePositionNaut miles runAvg speedWind from/ knotsBaromVisibWave heightAir tempDewpointWater temp
2017-Oct-17 17:00N 49°19' W 123°06'0 0.5
2017-Oct-17 16:30N 49°19' W 123°06'0 0.5
2017-Oct-17 16:01N 49°19' W 123°06'0 0.1
2017-Oct-17 15:31N 49°19' W 123°06'0 0.1
2017-Oct-17 15:01N 49°19' W 123°06'1 2.9
2017-Oct-17 14:30N 49°17' W 123°06'611.0
2017-Oct-17 14:00N 49°18' W 122°58'2 5.0
2017-Oct-17 13:31N 49°17' W 122°54'0 0.7
2017-Oct-17 13:00N 49°17' W 122°54'2 3.6
2017-Oct-17 12:30N 49°18' W 122°57'3 5.3
2017-Oct-17 12:00N 49°18' W 123°01'2 4.6
2017-Oct-17 11:30N 49°18' W 123°05'1 1.2
2017-Oct-17 11:00N 49°19' W 123°05'0 0.0
2017-Oct-17 10:30N 49°19' W 123°05'0 0.0
2017-Oct-17 10:00N 49°19' W 123°05'0 0.0
2017-Oct-17 09:30N 49°19' W 123°05'0 0.0
2017-Oct-17 09:01N 49°19' W 123°05'0 0.0
2017-Oct-17 08:30N 49°19' W 123°05'0 0.0
2017-Oct-17 08:00N 49°19' W 123°05'0 0.0
2017-Oct-17 07:31N 49°19' W 123°05'0 0.0
2017-Oct-17 07:00N 49°19' W 123°05'0 0.0
2017-Oct-17 06:31N 49°19' W 123°05'0 0.0
2017-Oct-17 06:00N 49°19' W 123°05'0 0.0
2017-Oct-17 05:30N 49°19' W 123°05'0 0.0
2017-Oct-17 05:00N 49°19' W 123°05'0 0.0
2017-Oct-17 04:30N 49°19' W 123°05'0 0.0
2017-Oct-17 04:00N 49°19' W 123°05'0 0.0
2017-Oct-17 03:30N 49°19' W 123°05'0 0.0
2017-Oct-17 03:01N 49°19' W 123°05'0 0.0
2017-Oct-17 02:31N 49°19' W 123°05'0 0.0
2017-Oct-17 02:01N 49°19' W 123°05'0 0.0
2017-Oct-17 01:30N 49°19' W 123°05'0 0.0
2017-Oct-17 01:00N 49°19' W 123°05'0 0.0
2017-Oct-17 00:30N 49°19' W 123°05'0 0.0
2017-Oct-17 00:00N 49°19' W 123°05'0 0.0
2017-Oct-16 23:30N 49°19' W 123°05'0 0.0
2017-Oct-16 23:00N 49°19' W 123°05'0 0.0
2017-Oct-16 22:30N 49°19' W 123°05'0 0.0
2017-Oct-16 22:00N 49°19' W 123°05'1 2.1
2017-Oct-16 21:30N 49°17' W 123°05'1 2.9
2017-Oct-16 21:00N 49°19' W 123°06'0 0.0
2017-Oct-16 20:31N 49°19' W 123°06'0 0.0
2017-Oct-16 20:00N 49°19' W 123°06'0 0.0
2017-Oct-16 19:30N 49°19' W 123°06'0 0.0
2017-Oct-16 19:00N 49°19' W 123°06'0 0.0
2017-Oct-16 18:30N 49°19' W 123°06'0 0.0
2017-Oct-16 18:00N 49°19' W 123°06'1 2.3
2017-Oct-16 17:30N 49°18' W 123°07'0 0.0
2017-Oct-16 17:00N 49°18' W 123°07'0 0.0
2017-Oct-16 16:30N 49°18' W 123°07'0 0.0
2017-Oct-16 16:00N 49°18' W 123°07'0 0.0
2017-Oct-16 15:30N 49°18' W 123°07'0 0.0
2017-Oct-16 15:00N 49°18' W 123°07'0 0.0
2017-Oct-16 14:00N 49°18' W 123°07'0 0.1
2017-Oct-16 13:30N 49°18' W 123°07'2 3.5
2017-Oct-16 13:01N 49°17' W 123°04'0 0.2
2017-Oct-16 12:30N 49°17' W 123°04'2 3.2
2017-Oct-16 12:01N 49°18' W 123°02'1 2.3
2017-Oct-16 11:30N 49°18' W 123°04'0 0.8
2017-Oct-16 11:00N 49°17' W 123°04'0 0.0
2017-Oct-16 10:30N 49°17' W 123°04'4 7.3
2017-Oct-16 10:00N 49°19' W 123°09'611.1
2017-Oct-16 09:30N 49°20' W 123°18'510.7
2017-Oct-16 09:00N 49°20' W 123°26'611.1
2017-Oct-16 08:31N 49°22' W 123°33'611.2
2017-Oct-16 08:01N 49°25' W 123°41'4 8.2
2017-Oct-16 07:30N 49°28' W 123°45'0 0.0
2017-Oct-16 07:00N 49°28' W 123°45'0 0.6
2017-Oct-16 06:30N 49°28' W 123°45'0 0.0
2017-Oct-16 06:00N 49°28' W 123°45'0 0.0
2017-Oct-16 05:30N 49°28' W 123°45'0 0.1
2017-Oct-16 05:01N 49°28' W 123°45'0 0.0
2017-Oct-16 04:30N 49°28' W 123°45'2 4.0
2017-Oct-16 04:00N 49°26' W 123°44'4 8.4
2017-Oct-16 03:31N 49°23' W 123°40'5 9.6
2017-Oct-16 03:00N 49°21' W 123°33'510.5
2017-Oct-16 02:30N 49°20' W 123°25'510.9
2017-Oct-16 02:00N 49°19' W 123°17'611.6
2017-Oct-16 01:31N 49°19' W 123°08'1 2.6
2017-Oct-16 01:00N 49°19' W 123°06'0 0.0
2017-Oct-16 00:30N 49°19' W 123°06'1 2.3
2017-Oct-16 00:00N 49°18' W 123°05'1 1.8
2017-Oct-15 23:30N 49°18' W 123°03'1 1.1
2017-Oct-15 23:00N 49°18' W 123°04'1 2.2
2017-Oct-15 22:31N 49°19' W 123°06'0 0.0
2017-Oct-15 22:00N 49°19' W 123°06'0 0.0
2017-Oct-15 21:30N 49°19' W 123°06'0 0.1
2017-Oct-15 21:00N 49°19' W 123°06'0 0.0
2017-Oct-15 20:31N 49°19' W 123°06'0 0.1
2017-Oct-15 20:00N 49°19' W 123°06'0 0.0
2017-Oct-15 19:30N 49°19' W 123°06'0 0.1
2017-Oct-15 19:00N 49°19' W 123°06'0 0.0
2017-Oct-15 18:30N 49°19' W 123°06'0 0.0
2017-Oct-15 18:00N 49°19' W 123°06'0 0.1
2017-Oct-15 17:30N 49°19' W 123°06'0 0.0
2017-Oct-15 17:01N 49°19' W 123°06'0 0.1
2017-Oct-15 16:30N 49°19' W 123°06'0 0.1
2017-Oct-15 16:01N 49°19' W 123°06'2 3.9
2017-Oct-15 15:30N 49°18' W 123°03'0 0.5
2017-Oct-15 15:00N 49°18' W 123°03'1 0.6
2017-Oct-15 14:00N 49°18' W 123°04'5 9.4
2017-Oct-15 13:30N 49°19' W 123°11'611.1
2017-Oct-15 13:00N 49°19' W 123°19'611.3
2017-Oct-15 12:30N 49°20' W 123°28'611.4
2017-Oct-15 12:00N 49°23' W 123°36'611.5
2017-Oct-15 11:30N 49°26' W 123°43'3 5.4
2017-Oct-15 11:00N 49°28' W 123°45'0 0.1
2017-Oct-15 10:30N 49°28' W 123°45'1 1.9
2017-Oct-15 10:00N 49°27' W 123°46'1 1.6
2017-Oct-15 09:30N 49°28' W 123°45'0 0.3
2017-Oct-15 09:00N 49°28' W 123°45'5 9.3
2017-Oct-15 08:30N 49°25' W 123°40'510.2
2017-Oct-15 08:00N 49°22' W 123°33'510.2
2017-Oct-15 07:31N 49°20' W 123°26'510.1
2017-Oct-15 07:00N 49°19' W 123°19'510.1
2017-Oct-15 06:30N 49°19' W 123°11'3 6.4
2017-Oct-15 06:00N 49°19' W 123°06'0 0.0
2017-Oct-15 05:30N 49°19' W 123°06'0 0.0
2017-Oct-15 05:01N 49°19' W 123°06'0 0.0
2017-Oct-15 04:30N 49°19' W 123°06'3 5.4
2017-Oct-15 04:00N 49°18' W 123°02'0 0.5
2017-Oct-15 03:31N 49°18' W 123°02'2 4.1
2017-Oct-15 03:00N 49°19' W 123°05'0 0.0
2017-Oct-15 02:30N 49°19' W 123°05'1 2.1
2017-Oct-15 02:00N 49°19' W 123°06'0 0.1
2017-Oct-15 01:31N 49°19' W 123°06'0 0.1
2017-Oct-15 01:01N 49°19' W 123°06'0 0.0
2017-Oct-15 00:30N 49°19' W 123°06'0 0.0
2017-Oct-15 00:01N 49°19' W 123°06'0 0.0
2017-Oct-14 23:30N 49°19' W 123°06'1 2.2
2017-Oct-14 23:01N 49°18' W 123°05'0 0.1
2017-Oct-14 22:31N 49°18' W 123°05'0 0.3
2017-Oct-14 22:01N 49°18' W 123°05'0 0.4
2017-Oct-14 21:30N 49°18' W 123°05'1 1.8
2017-Oct-14 21:01N 49°18' W 123°03'0 0.0
2017-Oct-14 20:30N 49°18' W 123°03'1 1.4
2017-Oct-14 20:00N 49°18' W 123°04'1 2.4
2017-Oct-14 19:30N 49°18' W 123°06'0 1.0
2017-Oct-14 19:00N 49°19' W 123°06'0 0.0
2017-Oct-14 18:30N 49°19' W 123°06'0 0.0
2017-Oct-14 18:00N 49°19' W 123°06'0 0.0
2017-Oct-14 17:30N 49°19' W 123°06'0 0.0
2017-Oct-14 17:00N 49°19' W 123°06'3 5.5
2017-Oct-14 16:30N 49°18' W 123°02'0 0.0
2017-Oct-14 16:01N 49°18' W 123°02'2 3.8
2017-Oct-14 15:30N 49°18' W 123°05'0 0.2
2017-Oct-14 15:00N 49°18' W 123°05'0 0.3
2017-Oct-14 14:30N 49°18' W 123°05'0 0.2
2017-Oct-14 14:00N 49°18' W 123°05'0 0.0
2017-Oct-14 13:30N 49°18' W 123°05'0 0.2
2017-Oct-14 13:00N 49°19' W 123°05'0 0.0
2017-Oct-14 12:30N 49°19' W 123°05'0 0.0
2017-Oct-14 12:01N 49°19' W 123°05'0 0.0
2017-Oct-14 11:30N 49°19' W 123°05'0 0.0
2017-Oct-14 11:00N 49°19' W 123°05'0 0.0
2017-Oct-14 10:31N 49°19' W 123°05'0 0.0
2017-Oct-14 10:00N 49°19' W 123°05'2 4.3
2017-Oct-14 09:30N 49°18' W 123°02'0 0.1
2017-Oct-14 09:01N 49°18' W 123°02'1 1.5
2017-Oct-14 08:30N 49°18' W 123°03'1 1.8
2017-Oct-14 08:00N 49°17' W 123°04'0 0.1
2017-Oct-14 07:31N 49°17' W 123°04'1 2.2
2017-Oct-14 07:01N 49°18' W 123°03'0 0.0
2017-Oct-14 06:31N 49°18' W 123°03'0 0.0
2017-Oct-14 06:00N 49°18' W 123°03'0 0.0
2017-Oct-14 05:30N 49°18' W 123°03'0 0.0
2017-Oct-14 05:00N 49°18' W 123°03'0 0.0
2017-Oct-14 04:30N 49°18' W 123°03'0 0.3
2017-Oct-14 04:00N 49°18' W 123°02'0 0.1
2017-Oct-14 03:30N 49°18' W 123°02'1 2.7
2017-Oct-14 03:00N 49°18' W 123°05'1 2.0
2017-Oct-14 02:30N 49°17' W 123°06'0 0.4
2017-Oct-14 02:00N 49°17' W 123°06'0 0.0
2017-Oct-14 01:30N 49°17' W 123°06'0 0.0
2017-Oct-14 01:00N 49°17' W 123°06'0 0.0
2017-Oct-14 00:30N 49°17' W 123°06'0 0.0
2017-Oct-14 00:00N 49°17' W 123°06'0 0.0
2017-Oct-13 23:30N 49°17' W 123°06'2 3.9
2017-Oct-13 23:00N 49°18' W 123°03'0 0.2
2017-Oct-13 22:30N 49°18' W 123°04'1 1.6
2017-Oct-13 22:00N 49°18' W 123°05'0 0.7
2017-Oct-13 21:30N 49°17' W 123°05'0 0.0
2017-Oct-13 21:00N 49°17' W 123°05'0 0.1
2017-Oct-13 20:31N 49°17' W 123°05'1 2.2
2017-Oct-13 20:00N 49°18' W 123°06'1 1.6
2017-Oct-13 19:31N 49°19' W 123°06'0 0.1
2017-Oct-13 19:00N 49°19' W 123°06'0 1.0
2017-Oct-13 18:30N 49°18' W 123°06'2 4.4
2017-Oct-13 18:00N 49°19' W 123°09'0 1.0
2017-Oct-13 17:30N 49°19' W 123°08'1 3.0
2017-Oct-13 17:00N 49°19' W 123°06'0 0.1
2017-Oct-13 16:30N 49°19' W 123°06'0 0.1
2017-Oct-13 16:00N 49°19' W 123°06'0 0.0
2017-Oct-13 15:30N 49°19' W 123°06'0 0.1
2017-Oct-13 15:00N 49°19' W 123°06'0 0.0
2017-Oct-13 14:30N 49°19' W 123°06'0 0.0
2017-Oct-13 14:01N 49°19' W 123°06'1 2.4
2017-Oct-13 13:31N 49°17' W 123°06'0 0.0
2017-Oct-13 13:00N 49°17' W 123°06'1 1.7
2017-Oct-13 12:30N 49°18' W 123°06'0 0.9
2017-Oct-13 12:00N 49°19' W 123°06'0 0.0
2017-Oct-13 11:30N 49°19' W 123°06'0 0.0
2017-Oct-13 11:00N 49°19' W 123°06'0 0.0
2017-Oct-13 10:31N 49°19' W 123°06'0 0.0
2017-Oct-13 10:01N 49°19' W 123°06'0 0.0
2017-Oct-13 09:30N 49°19' W 123°06'0 0.2
2017-Oct-13 09:00N 49°19' W 123°06'3 6.2
2017-Oct-13 08:30N 49°18' W 123°02'0 0.0
2017-Oct-13 08:00N 49°18' W 123°02'1 1.0
2017-Oct-13 07:30N 49°18' W 123°03'2 3.1
2017-Oct-13 07:00N 49°19' W 123°05'0 0.0
2017-Oct-13 06:30N 49°19' W 123°05'0 0.0
2017-Oct-13 06:00N 49°19' W 123°05'0 0.0
2017-Oct-13 05:30N 49°19' W 123°05'0 0.0
2017-Oct-13 05:00N 49°19' W 123°05'0 0.0
2017-Oct-13 04:30N 49°19' W 123°05'0 0.0
2017-Oct-13 04:00N 49°19' W 123°05'0 0.0
2017-Oct-13 03:31N 49°19' W 123°05'0 0.0
2017-Oct-13 03:00N 49°19' W 123°05'0 0.0
2017-Oct-13 02:31N 49°19' W 123°05'0 0.0
2017-Oct-13 02:00N 49°19' W 123°05'0 0.0
2017-Oct-13 01:30N 49°19' W 123°05'0 0.0
2017-Oct-13 01:00N 49°19' W 123°05'0 0.0
2017-Oct-13 00:30N 49°19' W 123°05'2 3.6
2017-Oct-13 00:00N 49°18' W 123°02'1 1.1
2017-Oct-12 23:30N 49°18' W 123°03'1 2.5
2017-Oct-12 23:00N 49°19' W 123°05'0 0.0
2017-Oct-12 22:30N 49°19' W 123°05'0 0.0
2017-Oct-12 22:00N 49°19' W 123°05'0 0.0
2017-Oct-12 21:31N 49°19' W 123°05'3 5.1
2017-Oct-12 21:00N 49°18' W 123°01'1 1.1
2017-Oct-12 20:30N 49°18' W 123°00'0 0.3
2017-Oct-12 20:00N 49°18' W 123°00'2 3.8
2017-Oct-12 19:30N 49°18' W 122°57'0 0.5
2017-Oct-12 19:00N 49°18' W 122°57'0 0.2
2017-Oct-12 18:31N 49°18' W 122°57'510.1
2017-Oct-12 18:00N 49°18' W 123°05'1 2.5
2017-Oct-12 17:30N 49°19' W 123°06'0 0.0
2017-Oct-12 17:00N 49°19' W 123°06'0 0.0
2017-Oct-12 16:30N 49°19' W 123°06'0 0.0
2017-Oct-12 16:00N 49°19' W 123°06'0 0.0
2017-Oct-12 15:30N 49°19' W 123°06'0 0.0
2017-Oct-12 15:00N 49°19' W 123°06'0 0.0
2017-Oct-12 14:30N 49°19' W 123°06'0 0.0
2017-Oct-12 14:00N 49°19' W 123°06'0 0.0
2017-Oct-12 13:30N 49°19' W 123°06'0 0.0
2017-Oct-12 13:00N 49°19' W 123°06'0 0.0
2017-Oct-12 12:30N 49°19' W 123°06'0 0.0
2017-Oct-12 12:00N 49°19' W 123°06'0 0.0
2017-Oct-12 11:30N 49°19' W 123°06'0 0.2
2017-Oct-12 11:00N 49°19' W 123°06'0 0.2
2017-Oct-12 10:30N 49°19' W 123°06'1 1.1
2017-Oct-12 10:00N 49°18' W 123°07'0 0.9
2017-Oct-12 09:30N 49°19' W 123°06'0 0.0
2017-Oct-12 09:00N 49°19' W 123°06'0 0.0
2017-Oct-12 08:30N 49°19' W 123°06'0 0.0
2017-Oct-12 08:00N 49°19' W 123°06'0 0.0
2017-Oct-12 07:30N 49°19' W 123°06'0 0.0
2017-Oct-12 07:00N 49°19' W 123°06'0 0.0
2017-Oct-12 06:30N 49°19' W 123°06'0 0.0
2017-Oct-12 06:00N 49°19' W 123°06'0 0.7
2017-Oct-12 05:30N 49°18' W 123°06'3 6.9
2017-Oct-12 05:01N 49°18' W 123°01'0 0.1
2017-Oct-12 04:30N 49°18' W 123°01'1 1.3
2017-Oct-12 04:00N 49°18' W 123°02'1 1.2
2017-Oct-12 03:30N 49°18' W 123°03'0 0.0
2017-Oct-12 03:00N 49°18' W 123°03'0 0.0
2017-Oct-12 02:30N 49°18' W 123°03'0 0.0
2017-Oct-12 02:00N 49°18' W 123°03'1 2.0
2017-Oct-12 01:30N 49°18' W 123°04'0 0.2
2017-Oct-12 01:01N 49°18' W 123°04'1 1.0
2017-Oct-12 00:30N 49°18' W 123°05'0 0.6
2017-Oct-12 00:00N 49°18' W 123°05'1 1.1
2017-Oct-11 23:30N 49°18' W 123°05'0 0.0
2017-Oct-11 23:00N 49°18' W 123°05'1 2.4
2017-Oct-11 22:30N 49°18' W 123°03'0 0.1
2017-Oct-11 22:00N 49°18' W 123°03'1 1.6
2017-Oct-11 21:30N 49°18' W 123°04'1 1.2
2017-Oct-11 21:00N 49°18' W 123°05'1 2.1
2017-Oct-11 20:30N 49°19' W 123°06'0 0.2
2017-Oct-11 20:00N 49°19' W 123°06'0 0.0
2017-Oct-11 19:30N 49°19' W 123°06'0 0.0
2017-Oct-11 19:00N 49°19' W 123°06'0 0.0
2017-Oct-11 18:30N 49°19' W 123°06'0 0.0
2017-Oct-11 18:00N 49°19' W 123°06'0 0.0
2017-Oct-11 17:30N 49°19' W 123°06'0 0.0
2017-Oct-11 17:00N 49°19' W 123°06'1 0.1
2017-Oct-11 00:00N 49°18' W 123°05'0 0.0
2017-Oct-10 23:30N 49°18' W 123°05'0 0.0
2017-Oct-10 23:00N 49°18' W 123°05'0 0.3
2017-Oct-10 22:31N 49°18' W 123°05'1 2.0
2017-Oct-10 22:00N 49°17' W 123°05'0 0.5
2017-Oct-10 21:30N 49°18' W 123°05'1 1.9
2017-Oct-10 21:00N 49°18' W 123°06'1 1.3
2017-Oct-10 20:30N 49°19' W 123°06'0 0.0
2017-Oct-10 20:00N 49°19' W 123°06'0 0.0
2017-Oct-10 19:30N 49°19' W 123°06'0 0.0
2017-Oct-10 19:00N 49°19' W 123°06'0 0.0
2017-Oct-10 18:30N 49°19' W 123°06'0 0.0
2017-Oct-10 18:00N 49°19' W 123°06'0 0.0
2017-Oct-10 17:30N 49°19' W 123°06'2 4.1
2017-Oct-10 17:00N 49°18' W 123°03'0 0.4
2017-Oct-10 16:30N 49°18' W 123°03'2 4.3
2017-Oct-10 16:00N 49°18' W 123°06'0 0.8
2017-Oct-10 15:31N 49°18' W 123°07'0 0.0
2017-Oct-10 15:00N 49°18' W 123°07'0 0.0
2017-Oct-10 14:00N 49°18' W 123°07'0 0.0
2017-Oct-10 13:30N 49°18' W 123°07'2 3.5
2017-Oct-10 13:00N 49°18' W 123°05'1 1.9
2017-Oct-10 12:30N 49°18' W 123°03'2 3.3
2017-Oct-10 12:00N 49°18' W 123°01'0 0.0
2017-Oct-10 11:30N 49°18' W 123°01'0 0.0
2017-Oct-10 11:00N 49°18' W 123°01'2 4.4
2017-Oct-10 10:30N 49°18' W 123°04'1 2.5
2017-Oct-10 10:00N 49°17' W 123°06'0 0.2
2017-Oct-10 09:31N 49°17' W 123°06'1 2.6
2017-Oct-10 09:00N 49°18' W 123°05'0 0.0
2017-Oct-10 08:30N 49°18' W 123°05'0 0.0
2017-Oct-10 08:00N 49°18' W 123°05'0 0.0
2017-Oct-10 07:30N 49°18' W 123°05'0 0.0
2017-Oct-10 07:00N 49°18' W 123°05'0 0.0
2017-Oct-10 06:30N 49°18' W 123°05'0 0.0
2017-Oct-10 06:00N 49°18' W 123°05'0 0.0
2017-Oct-10 05:30N 49°18' W 123°05'0 0.0
2017-Oct-10 05:00N 49°18' W 123°05'0 0.0
2017-Oct-10 04:30N 49°18' W 123°05'0 0.0
2017-Oct-10 04:00N 49°18' W 123°05'0 0.0
2017-Oct-10 03:30N 49°18' W 123°05'0 0.0
2017-Oct-10 03:00N 49°18' W 123°05'0 0.0
2017-Oct-10 02:30N 49°18' W 123°05'0 0.0
2017-Oct-10 02:00N 49°18' W 123°05'0 0.0
2017-Oct-10 01:30N 49°18' W 123°05'0 0.0
2017-Oct-10 01:00N 49°18' W 123°05'1 2.6
2017-Oct-10 00:30N 49°17' W 123°06'0 0.0
2017-Oct-10 00:01N 49°17' W 123°06'0 0.9
2017-Oct-09 23:31N 49°18' W 123°06'2 3.3
2017-Oct-09 23:00N 49°18' W 123°03'1 1.7
2017-Oct-09 22:31N 49°18' W 123°02'0 0.2
2017-Oct-09 22:00N 49°18' W 123°02'0 0.1
2017-Oct-09 21:31N 49°18' W 123°02'2 3.5
2017-Oct-09 21:00N 49°18' W 123°05'0 0.0
2017-Oct-09 20:30N 49°18' W 123°05'0 0.0
2017-Oct-09 20:00N 49°18' W 123°05'0 0.0
2017-Oct-09 19:30N 49°18' W 123°05'1 1.1
2017-Oct-09 19:00N 49°18' W 123°06'1 1.3
2017-Oct-09 18:30N 49°19' W 123°06'0 0.0
2017-Oct-09 18:00N 49°19' W 123°06'2 4.5
2017-Oct-09 17:30N 49°18' W 123°03'2 3.1
2017-Oct-09 17:00N 49°18' W 123°01'0 0.4
2017-Oct-09 16:31N 49°18' W 123°01'1 2.4
2017-Oct-09 16:00N 49°18' W 122°59'0 0.7
2017-Oct-09 15:30N 49°18' W 122°58'0 0.3
2017-Oct-09 15:00N 49°18' W 122°58'0 0.7
2017-Oct-09 14:30N 49°18' W 122°58'0 0.0
2017-Oct-09 14:00N 49°18' W 122°58'3 5.9
2017-Oct-09 13:31N 49°18' W 123°03'1 2.5
2017-Oct-09 13:00N 49°17' W 123°05'2 3.3
2017-Oct-09 12:30N 49°19' W 123°06'0 0.0
2017-Oct-09 12:00N 49°19' W 123°06'0 0.0
2017-Oct-09 11:30N 49°19' W 123°06'0 0.0
2017-Oct-09 11:00N 49°19' W 123°06'0 0.3
2017-Oct-09 10:30N 49°18' W 123°06'510.5
2017-Oct-09 10:00N 49°18' W 123°14'510.8
2017-Oct-09 09:31N 49°14' W 123°19'611.8
2017-Oct-09 09:00N 49°08' W 123°20'510.6
2017-Oct-09 08:30N 49°03' W 123°18'510.4
2017-Oct-09 08:01N 49°01' W 123°11'1 2.4
2017-Oct-09 07:29N 49°01' W 123°09'0 0.1
2017-Oct-09 06:59N 49°01' W 123°09'0 0.4
2017-Oct-09 06:26N 49°01' W 123°09'0 0.4
2017-Oct-09 05:59N 49°01' W 123°09'1 2.9
2017-Oct-09 05:29N 48°60' W 123°09'0 0.8
2017-Oct-09 05:00N 49°00' W 123°10'1 1.2
2017-Oct-09 04:31N 49°01' W 123°09'1 1.1
2017-Oct-09 04:00N 49°01' W 123°09'0 0.8
2017-Oct-09 03:30N 49°02' W 123°09'0 0.0
2017-Oct-09 03:00N 49°02' W 123°09'0 0.0
2017-Oct-09 02:30N 49°02' W 123°09'0 0.0
2017-Oct-09 02:00N 49°02' W 123°09'0 0.0
2017-Oct-09 01:30N 49°02' W 123°09'0 0.0
2017-Oct-09 01:00N 49°02' W 123°09'0 0.2
2017-Oct-09 00:17N 49°01' W 123°09'0 1.0
2017-Oct-08 23:48N 49°01' W 123°09'2 6.0
2017-Oct-08 23:30N 48°59' W 123°09'2 4.6
2017-Oct-08 23:00N 49°02' W 123°09'0 0.0
2017-Oct-08 22:30N 49°02' W 123°09'0 0.0
2017-Oct-08 22:00N 49°02' W 123°09'0 0.0
2017-Oct-08 21:30N 49°02' W 123°09'0 0.0
2017-Oct-08 20:59N 49°02' W 123°09'0 0.0
2017-Oct-08 20:31N 49°02' W 123°09'0 0.0
2017-Oct-08 20:00N 49°02' W 123°09'0 0.0
2017-Oct-08 19:31N 49°02' W 123°09'1 1.4
2017-Oct-08 19:00N 49°01' W 123°09'0 0.2
2017-Oct-08 18:30N 49°01' W 123°09'0 0.0
2017-Oct-08 18:00N 49°01' W 123°09'0 0.9
2017-Oct-08 17:31N 49°00' W 123°10'0 0.8
2017-Oct-08 17:01N 49°01' W 123°09'0 0.0
2017-Oct-08 16:30N 49°01' W 123°09'1 1.6
2017-Oct-08 16:01N 49°02' W 123°09'0 0.0
2017-Oct-08 15:31N 49°02' W 123°09'0 0.0
2017-Oct-08 15:00N 49°02' W 123°09'0 0.0
2017-Oct-08 14:31N 49°02' W 123°09'0 0.0
2017-Oct-08 14:00N 49°02' W 123°09'3 6.3
2017-Oct-08 13:30N 49°01' W 123°14'5 9.8
2017-Oct-08 13:00N 49°05' W 123°19'611.4
2017-Oct-08 12:30N 49°10' W 123°19'510.8
2017-Oct-08 12:00N 49°16' W 123°18'510.6
2017-Oct-08 11:31N 49°19' W 123°11'3 6.5
2017-Oct-08 11:01N 49°19' W 123°06'0 0.0
2017-Oct-08 10:30N 49°19' W 123°06'0 0.0
2017-Oct-08 10:01N 49°19' W 123°06'0 0.1
2017-Oct-08 09:31N 49°19' W 123°06'2 4.6
2017-Oct-08 09:01N 49°19' W 123°09'2 3.8
2017-Oct-08 08:31N 49°18' W 123°07'2 4.4
2017-Oct-08 08:01N 49°18' W 123°03'0 0.2
2017-Oct-08 07:30N 49°18' W 123°03'1 2.0
2017-Oct-08 07:01N 49°18' W 123°05'0 0.1
2017-Oct-08 06:31N 49°18' W 123°05'0 0.0
2017-Oct-08 06:01N 49°18' W 123°05'0 0.0
2017-Oct-08 05:31N 49°18' W 123°05'0 0.0
2017-Oct-08 05:01N 49°18' W 123°05'0 0.0
2017-Oct-08 04:31N 49°18' W 123°05'4 7.5
2017-Oct-08 04:01N 49°19' W 123°10'1 2.5
2017-Oct-08 03:30N 49°18' W 123°12'2 3.7
2017-Oct-08 03:00N 49°18' W 123°15'4 8.2
2017-Oct-08 02:30N 49°15' W 123°19'611.8
2017-Oct-08 02:00N 49°09' W 123°20'611.6
2017-Oct-08 01:30N 49°04' W 123°19'713.2
2017-Oct-08 01:00N 48°59' W 123°12'713.1
2017-Oct-08 00:30N 48°55' W 123°05'612.5
2017-Oct-08 00:00N 48°49' W 122°60'612.4
2017-Oct-07 23:30N 48°44' W 123°06'612.5
2017-Oct-07 23:01N 48°42' W 123°15'612.2
2017-Oct-07 22:31N 48°36' W 123°13'612.2
2017-Oct-07 22:01N 48°30' W 123°11'612.0
2017-Oct-07 21:31N 48°24' W 123°12'612.6
2017-Oct-07 21:00N 48°22' W 123°21'3 6.7
2017-Oct-07 20:31N 48°25' W 123°23'0 0.0
2017-Oct-07 20:00N 48°25' W 123°23'0 0.0
2017-Oct-07 19:30N 48°25' W 123°23'0 0.0
2017-Oct-07 19:01N 48°25' W 123°23'0 0.0
2017-Oct-07 18:30N 48°25' W 123°23'0 0.0
2017-Oct-07 18:00N 48°25' W 123°23'3 6.5
2017-Oct-07 17:30N 48°23' W 123°19'510.0
2017-Oct-07 17:00N 48°28' W 123°15'  

Dump ship's entire track history